Time;durP1;ratioP1;P1;durP2;ratioP2;P2;SDS_P1;SDS_P2;PMS_P1;PMS_P2;Temp;Humidity;BMP_temperature;BMP_pressure;BME280_temperature;BME280_humidity;BME280_pressure;Samples;Min_cycle;Max_cycle;Signal;HPM_P1;HPM_P2
2024/01/12 00:01:24;;;;;;;15.00;4.90;;;;;;;2.93;100.00;103548.50;6085163;19;20721;-72
2024/01/12 00:03:31;;;;;;;16.38;4.53;;;;;;;2.96;100.00;103552.06;6084759;19;20024;-72
2024/01/12 00:05:36;;;;;;;17.30;4.13;;;;;;;3.01;100.00;103549.66;6086323;19;20011;-70
2024/01/12 00:07:41;;;;;;;25.02;4.88;;;;;;;3.01;100.00;103542.72;6086409;19;20010;-74
2024/01/12 00:09:46;;;;;;;19.85;5.85;;;;;;;3.04;100.00;103547.16;6087226;19;20410;-75
2024/01/12 00:11:52;;;;;;;19.65;4.88;;;;;;;3.11;100.00;103550.81;6086974;19;20039;-76
2024/01/12 00:13:54;;;;;;;19.50;4.72;;;;;;;3.05;100.00;103552.41;6086723;19;20019;-75
2024/01/12 00:15:59;;;;;;;20.20;5.72;;;;;;;3.03;100.00;103543.66;6086787;19;20007;-71
2024/01/12 00:18:05;;;;;;;13.77;4.30;;;;;;;2.97;100.00;103551.22;6081211;19;20433;-73
2024/01/12 00:20:16;;;;;;;10.57;4.75;;;;;;;2.95;100.00;103539.03;6085179;19;20349;-74
2024/01/12 00:22:19;;;;;;;19.95;5.03;;;;;;;2.97;100.00;103546.03;6087071;19;20013;-73
2024/01/12 00:24:26;;;;;;;10.52;3.95;;;;;;;3.02;100.00;103538.41;6085908;19;20438;-71
2024/01/12 00:26:31;;;;;;;22.98;5.78;;;;;;;3.08;100.00;103542.13;6085277;19;20010;-72
2024/01/12 00:28:34;;;;;;;15.40;5.22;;;;;;;3.03;100.00;103538.47;6087673;19;20011;-71
2024/01/12 00:30:39;;;;;;;18.30;5.43;;;;;;;3.06;100.00;103542.91;6087167;19;20494;-72
2024/01/12 00:32:46;;;;;;;10.95;5.30;;;;;;;3.08;100.00;103528.22;6085227;19;20014;-72
2024/01/12 00:34:52;;;;;;;29.48;6.03;;;;;;;3.04;100.00;103532.44;6083919;19;20013;-72
2024/01/12 00:36:57;;;;;;;22.23;5.35;;;;;;;2.99;100.00;103528.78;6086097;19;20014;-72
2024/01/12 00:39:03;;;;;;;20.35;6.32;;;;;;;2.94;100.00;103526.88;6083942;19;20014;-71
2024/01/12 00:41:08;;;;;;;20.80;7.50;;;;;;;2.91;100.00;103527.66;6086260;19;20020;-73
2024/01/12 00:43:17;;;;;;;23.35;5.68;;;;;;;2.93;100.00;103533.78;6086042;19;20011;-72
2024/01/12 00:45:22;;;;;;;20.20;5.90;;;;;;;2.93;100.00;103532.91;6086459;19;21060;-72
2024/01/12 00:47:27;;;;;;;18.58;4.90;;;;;;;3.01;100.00;103528.88;6084417;19;20024;-72
2024/01/12 00:49:33;;;;;;;23.25;5.18;;;;;;;2.98;100.00;103528.75;6085257;19;20016;-74
2024/01/12 00:51:38;;;;;;;18.48;5.30;;;;;;;3.00;100.00;103529.69;6084270;19;20387;-75
2024/01/12 00:53:46;;;;;;;18.20;6.68;;;;;;;2.95;100.00;103536.44;6075920;19;20011;-74
2024/01/12 00:55:52;;;;;;;14.70;5.30;;;;;;;2.97;100.00;103537.38;6085746;19;20006;-75
2024/01/12 00:57:58;;;;;;;18.33;5.95;;;;;;;2.99;100.00;103536.59;6083890;19;20590;-72
2024/01/12 01:00:04;;;;;;;23.77;6.18;;;;;;;2.95;100.00;103539.94;6081384;19;20007;-72
2024/01/12 01:02:09;;;;;;;28.02;6.75;;;;;;;2.96;100.00;103544.28;6083634;19;20471;-72
2024/01/12 01:04:12;;;;;;;14.52;4.95;;;;;;;2.96;100.00;103544.28;6084178;19;20006;-72
2024/01/12 01:06:17;;;;;;;17.38;4.90;;;;;;;2.96;100.00;103540.81;6083831;19;20094;-72
2024/01/12 01:08:20;;;;;;;16.67;5.60;;;;;;;2.90;100.00;103538.88;6082081;19;20499;-72
2024/01/12 01:10:28;;;;;;;14.05;4.30;;;;;;;2.93;100.00;103536.38;6078654;19;20901;-72
2024/01/12 01:12:33;;;;;;;12.52;4.70;;;;;;;2.95;100.00;103547.72;6081870;19;20042;-72
2024/01/12 01:14:38;;;;;;;30.90;7.15;;;;;;;2.88;100.00;103542.25;6083326;19;20023;-72
2024/01/12 01:16:44;;;;;;;19.80;4.82;;;;;;;2.90;100.00;103537.97;6082277;19;20034;-72
2024/01/12 01:18:48;;;;;;;23.00;4.57;;;;;;;2.84;100.00;103546.44;6083927;19;20010;-73
2024/01/12 01:20:54;;;;;;;12.73;4.38;;;;;;;2.77;100.00;103547.06;6083888;19;20030;-72
2024/01/12 01:22:59;;;;;;;20.50;5.30;;;;;;;2.78;100.00;103552.31;6082826;19;20006;-71
2024/01/12 01:25:02;;;;;;;24.23;5.28;;;;;;;2.91;100.00;103551.03;6076424;19;20011;-71
2024/01/12 01:27:11;;;;;;;22.05;5.20;;;;;;;2.83;100.00;103537.78;6080399;19;20007;-72
2024/01/12 01:29:16;;;;;;;24.15;6.40;;;;;;;2.86;100.00;103542.19;6076551;19;20459;-76
2024/01/12 01:31:21;;;;;;;20.63;5.40;;;;;;;2.83;100.00;103539.50;6082928;19;20014;-72
2024/01/12 01:33:26;;;;;;;14.40;3.85;;;;;;;2.85;100.00;103540.44;6082504;19;20030;-74
2024/01/12 01:35:29;;;;;;;22.52;4.38;;;;;;;2.80;100.00;103544.59;6083676;19;20139;-72
2024/01/12 01:37:34;;;;;;;16.40;3.92;;;;;;;2.81;100.00;103544.63;6084246;19;20506;-73
2024/01/12 01:39:36;;;;;;;11.43;3.40;;;;;;;2.82;100.00;103551.59;6080554;19;20030;-73
2024/01/12 01:41:42;;;;;;;11.27;4.18;;;;;;;2.81;100.00;103547.22;6083389;19;20043;-73
2024/01/12 01:43:49;;;;;;;13.60;3.10;;;;;;;2.89;100.00;103546.63;6081564;19;20054;-72
2024/01/12 01:45:55;;;;;;;13.05;3.70;;;;;;;2.84;100.00;103546.44;6082520;19;20003;-72
2024/01/12 01:48:00;;;;;;;10.48;3.88;;;;;;;2.78;100.00;103547.13;6085202;19;20038;-76
2024/01/12 01:50:04;;;;;;;6.63;3.45;;;;;;;2.79;100.00;103548.00;6083113;19;20452;-74
2024/01/12 01:52:12;;;;;;;11.90;4.05;;;;;;;2.73;100.00;103542.59;6080079;19;20034;-74
2024/01/12 01:54:15;;;;;;;7.05;2.85;;;;;;;2.70;100.00;103548.56;6078651;19;20490;-73
2024/01/12 01:56:23;;;;;;;12.98;3.63;;;;;;;2.75;100.00;103544.41;6080253;19;20486;-72
2024/01/12 01:58:28;;;;;;;13.57;4.43;;;;;;;2.78;100.00;103541.03;6084055;19;20035;-73
2024/01/12 02:00:37;;;;;;;15.90;3.28;;;;;;;2.82;100.00;103542.94;6089149;19;20010;-72
2024/01/12 02:02:42;;;;;;;13.02;3.50;;;;;;;2.75;100.00;103536.63;6089763;19;20009;-72
2024/01/12 02:04:48;;;;;;;13.90;4.05;;;;;;;2.69;100.00;103543.34;6090989;19;20017;-73
2024/01/12 02:06:54;;;;;;;15.65;3.65;;;;;;;2.60;100.00;103547.34;6087665;19;20002;-73
2024/01/12 02:09:00;;;;;;;15.43;4.60;;;;;;;2.60;100.00;103542.16;6087316;19;20419;-74
2024/01/12 02:11:06;;;;;;;13.68;3.95;;;;;;;2.55;100.00;103545.41;6082102;19;20377;-73
2024/01/12 02:13:11;;;;;;;13.55;4.65;;;;;;;2.59;100.00;103543.00;6084259;19;20736;-74
2024/01/12 02:15:17;;;;;;;13.82;4.05;;;;;;;2.60;100.00;103549.06;6088081;19;20086;-74
2024/01/12 02:17:25;;;;;;;12.25;4.25;;;;;;;2.57;100.00;103548.94;6087633;19;20333;-74
2024/01/12 02:19:30;;;;;;;11.38;3.83;;;;;;;2.63;100.00;103542.28;6085181;19;20086;-73
2024/01/12 02:21:38;;;;;;;18.55;4.63;;;;;;;2.57;100.00;103543.75;6087058;19;20579;-72
2024/01/12 02:23:43;;;;;;;14.75;4.60;;;;;;;2.53;100.00;103542.78;6086614;19;20006;-72
2024/01/12 02:25:49;;;;;;;15.10;3.90;;;;;;;2.64;100.00;103535.38;6085417;19;21454;-72
2024/01/12 02:27:53;;;;;;;15.45;4.40;;;;;;;2.77;100.00;103536.69;6087165;19;20010;-72
2024/01/12 02:30:00;;;;;;;9.43;3.03;;;;;;;2.83;100.00;103542.09;6088431;19;20844;-72
2024/01/12 02:32:06;;;;;;;6.75;4.53;;;;;;;2.84;100.00;103539.56;6087881;19;20002;-72
2024/01/12 02:34:11;;;;;;;16.08;3.63;;;;;;;2.81;100.00;103538.56;6085335;19;20067;-74
2024/01/12 02:36:17;;;;;;;8.80;3.40;;;;;;;2.88;100.00;103539.66;6082785;19;20042;-74
2024/01/12 02:38:24;;;;;;;9.52;3.00;;;;;;;2.92;100.00;103539.78;6081888;19;20021;-76
2024/01/12 02:40:30;;;;;;;12.68;4.32;;;;;;;2.90;100.00;103541.47;6087325;19;20010;-75
2024/01/12 02:42:35;;;;;;;18.77;3.95;;;;;;;2.86;100.00;103540.47;6088396;19;20379;-75
2024/01/12 02:44:41;;;;;;;9.60;3.70;;;;;;;2.92;100.00;103537.19;6088431;19;20074;-75
2024/01/12 02:46:46;;;;;;;10.70;3.47;;;;;;;2.91;100.00;103539.75;6085564;19;20014;-75
2024/01/12 02:48:51;;;;;;;11.27;3.13;;;;;;;2.83;100.00;103531.69;6087589;19;20010;-75
2024/01/12 02:50:54;;;;;;;15.30;3.10;;;;;;;2.82;100.00;103524.75;6086503;19;20016;-76
2024/01/12 02:52:59;;;;;;;10.80;3.08;;;;;;;2.85;100.00;103528.34;6084455;19;20002;-73
2024/01/12 02:55:08;;;;;;;9.27;3.50;;;;;;;2.82;100.00;103530.81;6088252;19;20013;-72
2024/01/12 02:57:14;;;;;;;13.05;3.67;;;;;;;2.76;100.00;103527.13;6080965;19;20327;-72
2024/01/12 02:59:19;;;;;;;8.95;3.67;;;;;;;2.78;100.00;103520.28;6087400;19;20028;-72
2024/01/12 03:01:24;;;;;;;10.98;5.13;;;;;;;2.70;100.00;103525.19;6087383;19;20653;-72
2024/01/12 03:03:29;;;;;;;20.23;4.47;;;;;;;2.69;100.00;103519.97;6086668;19;20538;-72
2024/01/12 03:05:35;;;;;;;9.13;3.53;;;;;;;2.66;100.00;103520.75;6085832;19;20007;-74
2024/01/12 03:07:40;;;;;;;13.63;4.32;;;;;;;2.69;100.00;103513.06;6082646;19;20015;-73
2024/01/12 03:09:47;;;;;;;10.65;3.75;;;;;;;2.68;100.00;103520.78;6080759;19;19999;-73
2024/01/12 03:11:54;;;;;;;10.25;3.70;;;;;;;2.66;100.00;103509.44;6080965;19;20349;-76
2024/01/12 03:14:00;;;;;;;7.88;3.83;;;;;;;2.56;100.00;103508.25;6084283;19;20013;-73
2024/01/12 03:16:06;;;;;;;13.82;4.03;;;;;;;2.64;100.00;103515.47;6086183;19;20010;-74
2024/01/12 03:18:11;;;;;;;8.82;3.30;;;;;;;2.61;100.00;103506.72;6081072;19;20006;-74
2024/01/12 03:20:14;;;;;;;11.88;3.55;;;;;;;2.55;100.00;103509.06;6083738;19;20002;-72
2024/01/12 03:22:19;;;;;;;;;;;;;;;2.47;100.00;103506.19;6087620;19;20087;-72
2024/01/12 03:24:24;;;;;;;10.70;4.47;;;;;;;2.41;100.00;103516.38;6084848;19;19917;-72
2024/01/12 03:26:29;;;;;;;10.65;4.13;;;;;;;2.38;100.00;103517.13;6085912;19;20618;-72
2024/01/12 03:28:35;;;;;;;13.70;3.67;;;;;;;2.39;100.00;103511.09;6085780;19;20010;-73
2024/01/12 03:30:43;;;;;;;8.65;3.80;;;;;;;2.40;100.00;103512.03;6086591;19;20024;-72
2024/01/12 03:32:48;;;;;;;13.98;3.95;;;;;;;2.39;100.00;103511.09;6085601;19;20077;-73
2024/01/12 03:34:54;;;;;;;7.07;3.65;;;;;;;2.36;100.00;103513.59;6079717;19;20045;-73
2024/01/12 03:36:59;;;;;;;16.77;4.78;;;;;;;2.32;100.00;103519.53;6086184;19;20039;-73
2024/01/12 03:39:05;;;;;;;7.68;3.88;;;;;;;2.32;100.00;103511.72;6084566;19;20487;-72
2024/01/12 03:41:10;;;;;;;6.18;3.25;;;;;;;2.27;100.00;103507.22;6087145;19;20010;-73
2024/01/12 03:43:18;;;;;;;14.23;4.45;;;;;;;2.26;100.00;103501.09;6077865;19;20489;-72
2024/01/12 03:45:24;;;;;;;13.13;4.15;;;;;;;2.25;100.00;103503.66;6082828;19;20018;-74
2024/01/12 03:47:29;;;;;;;8.40;4.03;;;;;;;2.20;100.00;103499.19;6082447;19;20484;-74
2024/01/12 03:49:35;;;;;;;12.13;4.18;;;;;;;2.25;100.00;103501.94;6083911;19;20007;-75
2024/01/12 03:51:44;;;;;;;10.45;3.90;;;;;;;2.19;100.00;103492.22;6083368;19;20070;-74
2024/01/12 03:53:49;;;;;;;6.40;3.85;;;;;;;2.16;100.00;103488.66;6080155;19;20006;-75
2024/01/12 03:55:54;;;;;;;8.77;3.40;;;;;;;2.14;100.00;103488.59;6083917;19;20006;-74
2024/01/12 03:57:59;;;;;;;15.27;5.70;;;;;;;2.11;100.00;103485.88;6087246;19;20029;-75
2024/01/12 04:00:06;;;;;;;11.98;4.43;;;;;;;2.14;100.00;103478.22;6084726;19;20408;-74
2024/01/12 04:02:14;;;;;;;11.05;4.30;;;;;;;2.11;100.00;103487.59;6082358;19;20352;-75
2024/01/12 04:04:20;;;;;;;7.35;3.50;;;;;;;2.11;100.00;103483.28;6082455;19;20372;-76
2024/01/12 04:06:25;;;;;;;11.73;3.95;;;;;;;2.10;100.00;103478.03;6087389;19;20038;-74
2024/01/12 04:08:31;;;;;;;9.75;4.13;;;;;;;2.10;100.00;103481.50;6084800;19;20006;-72
2024/01/12 04:10:36;;;;;;;5.63;3.75;;;;;;;2.08;100.00;103480.59;6083611;19;20066;-73
2024/01/12 04:12:41;;;;;;;10.38;4.22;;;;;;;2.10;100.00;103478.91;6083713;19;20006;-72
2024/01/12 04:14:47;;;;;;;8.73;3.30;;;;;;;2.10;100.00;103481.50;6085439;19;20530;-72
2024/01/12 04:16:52;;;;;;;6.85;3.20;;;;;;;2.07;100.00;103485.69;6086275;19;20074;-74
2024/01/12 04:19:00;;;;;;;16.70;3.75;;;;;;;2.07;100.00;103486.59;6085182;19;20395;-75
2024/01/12 04:21:07;;;;;;;7.55;3.40;;;;;;;2.12;100.00;103489.34;6084804;19;20013;-75
2024/01/12 04:23:12;;;;;;;13.13;3.95;;;;;;;2.16;100.00;103494.72;6085955;19;20527;-75
2024/01/12 04:25:17;;;;;;;9.13;3.70;;;;;;;2.17;100.00;103491.28;6082858;19;20006;-75
2024/01/12 04:27:25;;;;;;;8.18;3.25;;;;;;;2.19;100.00;103499.13;6083893;19;20011;-73
2024/01/12 04:29:30;;;;;;;9.73;3.95;;;;;;;2.21;100.00;103497.47;6083742;19;20570;-73
2024/01/12 04:31:35;;;;;;;7.18;4.10;;;;;;;2.19;100.00;103497.44;6083735;19;20006;-74
2024/01/12 04:33:40;;;;;;;7.50;4.00;;;;;;;2.17;100.00;103505.97;6082034;19;20074;-74
2024/01/12 04:35:48;;;;;;;13.85;4.03;;;;;;;2.13;100.00;103497.22;6083373;19;20011;-74
2024/01/12 04:37:53;;;;;;;11.68;3.88;;;;;;;2.15;100.00;103502.44;6083885;19;20011;-74
2024/01/12 04:39:58;;;;;;;15.10;4.20;;;;;;;2.15;100.00;103505.03;6084977;19;20493;-75
2024/01/12 04:42:03;;;;;;;6.63;3.05;;;;;;;2.16;100.00;103499.03;6083934;19;20010;-74
2024/01/12 04:44:08;;;;;;;11.43;4.57;;;;;;;2.14;100.00;103509.34;6078201;19;20078;-76
2024/01/12 04:46:16;;;;;;;6.93;3.40;;;;;;;2.15;100.00;103494.66;6082197;19;20082;-75
2024/01/12 04:48:22;;;;;;;8.35;3.97;;;;;;;2.14;100.00;103495.50;6083086;19;20672;-75
2024/01/12 04:50:27;;;;;;;10.20;4.53;;;;;;;2.11;100.00;103493.66;6077563;19;20042;-75
2024/01/12 04:52:34;;;;;;;10.05;3.92;;;;;;;2.07;100.00;103489.19;6079954;19;20010;-75
2024/01/12 04:54:40;;;;;;;8.07;3.65;;;;;;;2.04;100.00;103486.47;6078624;19;20011;-76
2024/01/12 04:56:42;;;;;;;7.82;4.10;;;;;;;2.00;100.00;103487.16;6081288;19;20028;-75
2024/01/12 04:58:47;;;;;;;5.80;3.20;;;;;;;2.01;100.00;103498.47;6082292;19;20013;-75
2024/01/12 05:00:52;;;;;;;5.97;3.28;;;;;;;1.97;100.00;103492.25;6081338;19;20015;-75
2024/01/12 05:02:57;;;;;;;14.30;4.03;;;;;;;1.96;100.00;103491.38;6081599;19;20027;-73
2024/01/12 05:05:04;;;;;;;11.07;5.22;;;;;;;1.92;100.00;103484.31;6080516;19;20010;-72
2024/01/12 05:07:09;;;;;;;9.18;4.65;;;;;;;1.96;100.00;103482.72;6083217;19;20018;-73
2024/01/12 05:09:20;;;;;;;10.50;4.38;;;;;;;1.93;100.00;103480.00;6082776;19;20762;-72
2024/01/12 05:11:25;;;;;;;11.93;4.75;;;;;;;1.94;100.00;103481.75;6082688;19;20206;-73
2024/01/12 05:13:31;;;;;;;10.23;3.78;;;;;;;1.90;100.00;103480.78;6082821;19;20014;-72
2024/01/12 05:15:36;;;;;;;11.98;4.30;;;;;;;1.89;100.00;103483.28;6082351;19;20425;-73
2024/01/12 05:17:41;;;;;;;11.05;3.97;;;;;;;1.90;100.00;103480.78;6082337;19;20027;-73
2024/01/12 05:19:47;;;;;;;11.27;3.90;;;;;;;1.94;100.00;103486.94;6081139;19;20014;-73
2024/01/12 05:21:53;;;;;;;13.50;4.70;;;;;;;1.92;100.00;103488.59;6077401;19;20008;-72
2024/01/12 05:23:58;;;;;;;9.75;4.38;;;;;;;1.93;100.00;103490.38;6081942;19;20405;-72
2024/01/12 05:26:06;;;;;;;11.48;5.47;;;;;;;1.95;100.00;103488.75;6082752;19;20003;-74
2024/01/12 05:28:08;;;;;;;8.40;4.28;;;;;;;2.01;100.00;103488.97;6079975;19;20038;-73
2024/01/12 05:30:17;;;;;;;10.20;3.90;;;;;;;2.01;100.00;103483.78;6079427;19;20515;-73
2024/01/12 05:32:22;;;;;;;7.35;4.28;;;;;;;2.01;100.00;103488.09;6083031;19;20002;-76
2024/01/12 05:34:25;;;;;;;14.30;5.32;;;;;;;1.99;100.00;103490.59;6084366;19;20015;-74
2024/01/12 05:36:30;;;;;;;10.48;4.07;;;;;;;1.98;100.00;103491.44;6086992;19;20010;-74
2024/01/12 05:38:35;;;;;;;10.05;4.05;;;;;;;1.93;100.00;103495.56;6089322;19;20009;-75
2024/01/12 05:40:40;;;;;;;15.77;4.50;;;;;;;1.88;100.00;103497.09;6084113;19;19999;-76
2024/01/12 05:42:47;;;;;;;14.48;4.18;;;;;;;1.89;100.00;103493.66;6086460;19;20015;-76
2024/01/12 05:44:52;;;;;;;13.40;4.78;;;;;;;1.94;100.00;103490.41;6087142;19;20003;-75
2024/01/12 05:46:57;;;;;;;11.35;5.55;;;;;;;1.92;100.00;103486.00;6086492;19;20015;-75
2024/01/12 05:49:04;;;;;;;9.55;4.80;;;;;;;1.93;100.00;103490.38;6089258;19;20028;-75
2024/01/12 05:51:10;;;;;;;8.45;4.30;;;;;;;1.90;100.00;103482.50;6087603;19;20010;-75
2024/01/12 05:53:13;;;;;;;8.38;4.93;;;;;;;1.88;100.00;103485.00;6087383;19;20013;-74
2024/01/12 05:55:18;;;;;;;;;;;;;;;1.84;100.00;103493.47;6089172;19;20003;-74
2024/01/12 05:57:20;;;;;;;10.48;4.47;;;;;;;1.89;100.00;103498.84;6086972;19;20249;-74
2024/01/12 05:59:28;;;;;;;9.32;4.35;;;;;;;1.85;100.00;103497.00;6088625;19;20006;-74
2024/01/12 06:01:34;;;;;;;11.07;4.47;;;;;;;1.83;100.00;103496.03;6082662;19;20011;-73
2024/01/12 06:03:39;;;;;;;12.05;4.68;;;;;;;1.81;100.00;103495.09;6088752;19;20533;-74
2024/01/12 06:05:45;;;;;;;10.10;5.47;;;;;;;1.83;100.00;103496.03;6085071;19;20358;-73
2024/01/12 06:07:51;;;;;;;11.55;4.10;;;;;;;1.78;100.00;103495.84;6086712;19;20021;-73
2024/01/12 06:09:56;;;;;;;11.57;4.68;;;;;;;1.72;100.00;103493.91;6085298;19;20471;-72
2024/01/12 06:12:02;;;;;;;12.75;5.18;;;;;;;1.83;100.00;103493.44;6087699;19;20015;-75
2024/01/12 06:14:07;;;;;;;10.90;4.45;;;;;;;1.79;100.00;103491.53;6086335;19;20023;-76
2024/01/12 06:16:16;;;;;;;12.10;5.13;;;;;;;1.77;100.00;103494.09;6086375;19;20002;-75
2024/01/12 06:18:21;;;;;;;14.32;4.75;;;;;;;1.78;100.00;103502.75;6083896;19;20007;-75
2024/01/12 06:20:25;;;;;;;8.57;3.88;;;;;;;1.70;100.00;103503.34;6086934;19;20006;-74
2024/01/12 06:22:30;;;;;;;8.93;4.28;;;;;;;1.71;100.00;103496.44;6087277;19;20010;-74
2024/01/12 06:24:36;;;;;;;13.35;5.00;;;;;;;1.69;100.00;103496.38;6083235;19;20458;-77
2024/01/12 06:26:41;;;;;;;9.40;4.45;;;;;;;1.69;100.00;103504.16;6085614;19;20456;-76
2024/01/12 06:28:46;;;;;;;9.57;4.70;;;;;;;1.66;100.00;103498.88;6087167;19;20075;-77
2024/01/12 06:30:54;;;;;;;13.98;4.80;;;;;;;1.64;100.00;103503.09;6085822;19;20066;-75
2024/01/12 06:33:02;;;;;;;7.88;4.05;;;;;;;1.63;100.00;103510.81;6085386;19;20074;-75
2024/01/12 06:35:13;;;;;;;15.55;4.80;;;;;;;1.66;100.00;103514.44;6079971;19;20042;-74
2024/01/12 06:37:19;;;;;;;16.58;5.75;;;;;;;1.69;100.00;103514.53;6085765;19;20011;-74
2024/01/12 06:39:26;;;;;;;20.67;5.55;;;;;;;1.67;100.00;103516.19;6085537;19;20014;-75
2024/01/12 06:41:31;;;;;;;11.65;5.22;;;;;;;1.63;100.00;103511.69;6085072;19;20011;-76
2024/01/12 06:43:34;;;;;;;10.02;4.40;;;;;;;1.60;100.00;103506.38;6079410;19;20090;-76
2024/01/12 06:45:39;;;;;;;;;;;;;;;1.57;100.00;103503.69;6087344;19;20020;-71
2024/01/12 06:47:47;;;;;;;15.55;6.03;;;;;;;1.59;100.00;103503.75;6084302;19;20230;-74
2024/01/12 06:49:55;;;;;;;14.57;6.38;;;;;;;1.60;100.00;103506.38;6081878;19;20740;-72
2024/01/12 06:52:00;;;;;;;20.17;6.13;;;;;;;1.62;100.00;103506.47;6083311;19;20015;-74
2024/01/12 06:54:06;;;;;;;11.38;5.55;;;;;;;1.57;100.00;103506.28;6084513;19;20006;-72
2024/01/12 06:56:20;;;;;;;11.30;5.13;;;;;;;1.57;100.00;103503.69;6085384;19;20023;-73
2024/01/12 06:58:25;;;;;;;13.77;6.05;;;;;;;1.59;100.00;103515.00;6087066;19;20327;-72
2024/01/12 07:00:28;;;;;;;13.55;6.32;;;;;;;1.60;100.00;103521.94;6087207;19;20007;-73
2024/01/12 07:02:33;;;;;;;12.80;5.93;;;;;;;1.55;100.00;103513.09;6088545;19;20007;-72
2024/01/12 07:04:39;;;;;;;14.65;5.50;;;;;;;1.53;100.00;103517.34;6088424;19;20031;-72
2024/01/12 07:06:47;;;;;;;15.25;5.35;;;;;;;1.52;100.00;103512.97;6087834;19;20034;-72
2024/01/12 07:08:52;;;;;;;12.55;4.97;;;;;;;1.53;100.00;103514.75;6088893;19;20006;-73
2024/01/12 07:10:58;;;;;;;11.68;5.93;;;;;;;1.55;100.00;103513.09;6087241;19;20422;-72
2024/01/12 07:13:03;;;;;;;15.20;5.32;;;;;;;1.52;100.00;103511.25;6084214;19;20580;-74
2024/01/12 07:15:09;;;;;;;10.43;4.72;;;;;;;1.49;100.00;103507.69;6086077;19;20381;-73
2024/01/12 07:17:15;;;;;;;10.50;5.15;;;;;;;1.51;100.00;103511.22;6087443;19;20007;-74
2024/01/12 07:19:23;;;;;;;11.93;5.53;;;;;;;1.64;100.00;103508.28;6088381;19;20111;-73
2024/01/12 07:21:29;;;;;;;14.45;6.65;;;;;;;1.67;100.00;103505.81;6086555;19;20086;-74
2024/01/12 07:23:37;;;;;;;18.10;4.80;;;;;;;1.71;100.00;103510.31;6088512;19;20018;-75
2024/01/12 07:25:42;;;;;;;14.68;5.38;;;;;;;1.66;100.00;103506.66;6085332;19;20508;-73
2024/01/12 07:27:47;;;;;;;11.50;5.80;;;;;;;1.61;100.00;103502.13;6085919;19;20010;-73
2024/01/12 07:29:52;;;;;;;15.85;5.40;;;;;;;1.65;100.00;103506.56;6088559;19;20024;-74
2024/01/12 07:31:58;;;;;;;10.75;5.70;;;;;;;1.61;100.00;103503.00;6079971;19;20145;-75
2024/01/12 07:34:06;;;;;;;8.57;5.10;;;;;;;1.61;100.00;103503.00;6084854;19;20491;-77
2024/01/12 07:36:12;;;;;;;11.13;5.93;;;;;;;1.64;100.00;103497.91;6086281;19;20317;-72
2024/01/12 07:38:15;;;;;;;16.77;6.38;;;;;;;1.65;100.00;103503.97;6087666;19;20018;-76
2024/01/12 07:40:22;;;;;;;13.98;6.00;;;;;;;1.69;100.00;103505.88;6087323;19;19998;-74
2024/01/12 07:42:27;;;;;;;14.82;5.53;;;;;;;1.65;100.00;103503.97;6085711;19;20003;-74
2024/01/12 07:44:36;;;;;;;12.13;6.70;;;;;;;1.65;100.00;103504.84;6087275;19;20017;-75
2024/01/12 07:46:44;;;;;;;14.75;5.97;;;;;;;1.62;100.00;103504.75;6071747;19;20728;-75
2024/01/12 07:48:51;;;;;;;16.58;6.97;;;;;;;1.64;100.00;103500.50;6082733;19;20081;-73
2024/01/12 07:50:56;;;;;;;12.52;6.82;;;;;;;1.61;100.00;103491.75;6084500;19;20438;-74
2024/01/12 07:53:02;;;;;;;16.45;8.45;;;;;;;1.69;100.00;103503.28;6083121;19;20011;-74
2024/01/12 07:55:08;;;;;;;15.82;6.47;;;;;;;1.66;100.00;103498.88;6087302;19;20021;-76
2024/01/12 07:57:16;;;;;;;21.98;6.00;;;;;;;1.69;100.00;103496.38;6083573;19;20491;-76
2024/01/12 07:59:19;;;;;;;20.45;5.68;;;;;;;1.67;100.00;103495.44;6086315;19;20014;-73
2024/01/12 08:01:24;;;;;;;;;;;;;;;1.73;100.00;103503.44;6087770;19;20482;-75
2024/01/12 08:03:29;;;;;;;12.77;5.78;;;;;;;1.74;100.00;103499.16;6084294;19;20342;-74
2024/01/12 08:05:35;;;;;;;14.73;5.63;;;;;;;1.69;100.00;103501.56;6081758;19;20058;-76
2024/01/12 08:07:41;;;;;;;16.77;6.30;;;;;;;1.67;100.00;103508.41;6082545;19;20355;-75
2024/01/12 08:09:49;;;;;;;14.27;5.35;;;;;;;1.66;100.00;103510.91;6074859;19;20366;-76
2024/01/12 08:11:53;;;;;;;10.20;6.30;;;;;;;1.67;100.00;103513.59;6082454;19;20039;-74
2024/01/12 08:14:01;;;;;;;12.50;7.15;;;;;;;1.68;100.00;103515.34;6079824;19;20024;-74
2024/01/12 08:16:04;;;;;;;18.20;8.85;;;;;;;1.69;100.00;103511.06;6080005;19;20010;-75
2024/01/12 08:18:09;;;;;;;23.65;7.85;;;;;;;1.70;100.00;103518.00;6084608;19;20000;-75
2024/01/12 08:20:17;;;;;;;13.40;7.05;;;;;;;1.74;100.00;103509.53;6086560;19;20043;-75
2024/01/12 08:22:22;;;;;;;33.03;7.30;;;;;;;1.77;100.00;103511.38;6079258;19;19999;-75
2024/01/12 08:24:27;;;;;;;13.85;6.82;;;;;;;1.74;100.00;103513.00;6083442;19;20014;-75
2024/01/12 08:26:33;;;;;;;12.75;7.40;;;;;;;1.84;100.00;103515.94;6081936;19;20443;-73
2024/01/12 08:28:35;;;;;;;16.55;8.63;;;;;;;1.82;100.00;103518.50;6084052;19;20485;-73
2024/01/12 08:30:43;;;;;;;12.25;6.50;;;;;;;1.82;100.00;103517.59;6082611;19;20561;-73
2024/01/12 08:32:48;;;;;;;19.02;7.30;;;;;;;1.80;100.00;103516.66;6082427;19;20574;-74
2024/01/12 08:34:54;;;;;;;13.55;8.57;;;;;;;1.81;100.00;103523.59;6083034;19;20742;-74
2024/01/12 08:36:59;;;;;;;18.45;8.43;;;;;;;1.85;100.00;103520.31;6084696;19;20491;-75
2024/01/12 08:39:04;;;;;;;12.32;6.80;;;;;;;1.89;100.00;103525.66;6082002;19;20009;-74
2024/01/12 08:41:10;;;;;;;22.58;7.00;;;;;;;1.89;100.00;103522.19;6082975;19;20007;-74
2024/01/12 08:43:19;;;;;;;16.52;7.82;;;;;;;1.96;100.00;103529.41;6080892;19;20629;-73
2024/01/12 08:45:24;;;;;;;19.02;8.07;;;;;;;1.96;100.00;103531.97;6080943;19;20007;-76
2024/01/12 08:47:32;;;;;;;16.55;8.13;;;;;;;2.03;100.00;103533.09;6082568;19;20045;-73
2024/01/12 08:49:38;;;;;;;22.10;8.75;;;;;;;2.09;100.00;103530.75;6082201;19;20006;-73
2024/01/12 08:51:43;;;;;;;16.67;8.23;;;;;;;2.16;100.00;103520.66;6081513;19;20007;-73
2024/01/12 08:53:48;;;;;;;16.70;8.45;;;;;;;2.23;100.00;103523.47;6083090;19;20495;-73
2024/01/12 08:55:53;;;;;;;16.90;6.68;;;;;;;2.29;100.00;103521.09;6084754;19;20520;-74
2024/01/12 08:57:58;;;;;;;20.02;6.95;;;;;;;2.33;100.00;103521.28;6082686;19;20558;-73
2024/01/12 09:00:03;;;;;;;19.98;6.28;;;;;;;2.36;100.00;103528.28;6085405;19;20010;-73
2024/01/12 09:02:09;;;;;;;17.55;5.85;;;;;;;2.51;100.00;103533.16;6083143;19;20004;-73
2024/01/12 09:04:17;;;;;;;12.07;6.63;;;;;;;2.67;100.00;103516.44;6081921;19;20011;-75
2024/01/12 09:06:23;;;;;;;11.02;5.45;;;;;;;2.71;100.00;103515.69;6079944;19;19999;-77
2024/01/12 09:08:30;;;;;;;15.88;6.07;;;;;;;2.72;100.00;103513.16;6081619;19;20549;-76
2024/01/12 09:10:36;;;;;;;18.88;6.35;;;;;;;2.91;100.00;103508.59;6079886;19;20337;-75
2024/01/12 09:12:41;;;;;;;18.95;4.93;;;;;;;2.99;100.00;103508.00;6081627;19;20002;-71
2024/01/12 09:14:46;;;;;;;14.00;6.60;;;;;;;3.01;100.00;103506.38;6081956;19;20498;-77
2024/01/12 09:16:51;;;;;;;12.70;6.05;;;;;;;3.13;100.00;103510.19;6081077;19;20126;-75
2024/01/12 09:18:54;;;;;;;13.98;5.07;;;;;;;3.22;100.00;103500.13;6080214;19;20422;-75
2024/01/12 09:21:02;;;;;;;14.95;4.75;;;;;;;3.25;100.00;103501.09;6083649;19;20410;-76
2024/01/12 09:23:08;;;;;;;19.50;5.47;;;;;;;3.31;100.00;103497.81;6082718;19;20019;-75
2024/01/12 09:25:14;;;;;;;14.65;5.18;;;;;;;3.27;100.00;103499.44;6081307;19;20106;-74
2024/01/12 09:27:19;;;;;;;11.25;3.65;;;;;;;3.29;100.00;103502.97;6081320;19;20431;-73
2024/01/12 09:29:27;;;;;;;11.13;4.25;;;;;;;3.24;100.00;103501.94;6082270;19;20010;-76
2024/01/12 09:31:34;;;;;;;16.90;5.78;;;;;;;3.26;100.00;103496.78;6080713;19;20025;-72
2024/01/12 09:33:39;;;;;;;22.88;5.63;;;;;;;3.34;100.00;103503.09;6082123;19;20087;-73
2024/01/12 09:35:45;;;;;;;18.10;6.45;;;;;;;3.34;100.00;103502.22;6082799;19;20011;-76
2024/01/12 09:37:50;;;;;;;15.73;4.38;;;;;;;3.37;100.00;103499.72;6074286;19;20011;-72
2024/01/12 09:39:55;;;;;;;15.23;5.10;;;;;;;3.39;100.00;103496.31;6077848;19;20408;-75